Time;durP1;ratioP1;P1;durP2;ratioP2;P2;SDS_P1;SDS_P2;PMS_P1;PMS_P2;Temp;Humidity;BMP_temperature;BMP_pressure;BME280_temperature;BME280_humidity;BME280_pressure;Samples;Min_cycle;Max_cycle;Signal;HPM_P1;HPM_P2
2022/05/08 00:00:31;;;;;;;21.93;5.70;;;7.30;99.90;;;;;;5050678;28;20125;-37
2022/05/08 00:02:58;;;;;;;23.87;5.03;;;7.40;99.90;;;;;;5052251;28;20063;-43
2022/05/08 00:05:24;;;;;;;18.30;5.17;;;7.30;99.90;;;;;;5036362;28;20583;-38
2022/05/08 00:07:50;;;;;;;21.30;5.57;;;7.20;99.90;;;;;;5032497;28;20606;-40
2022/05/08 00:10:16;;;;;;;27.50;5.73;;;7.20;99.90;;;;;;5047495;28;20049;-37
2022/05/08 00:12:42;;;;;;;23.30;5.07;;;7.20;99.90;;;;;;5045723;28;20118;-36
2022/05/08 00:15:08;;;;;;;23.67;5.37;;;7.20;99.90;;;;;;5048020;28;20478;-39
2022/05/08 00:17:36;;;;;;;19.47;5.27;;;7.10;99.90;;;;;;5030562;28;20498;-36
2022/05/08 00:20:05;;;;;;;24.87;5.50;;;7.10;99.90;;;;;;5047842;28;20059;-38
2022/05/08 00:22:30;;;;;;;17.23;5.53;;;7.10;99.90;;;;;;5054702;28;20071;-36
2022/05/08 00:24:56;;;;;;;21.10;5.73;;;7.10;99.90;;;;;;5059976;28;20495;-35
2022/05/08 00:27:22;;;;;;;28.57;6.23;;;7.00;99.90;;;;;;5050482;28;20040;-37
2022/05/08 00:29:48;;;;;;;20.77;5.10;;;7.00;99.90;;;;;;5068312;28;20044;-36
2022/05/08 00:32:13;;;;;;;28.00;5.77;;;6.90;99.90;;;;;;5054576;28;20404;-39
2022/05/08 00:34:39;;;;;;;18.70;5.27;;;6.90;99.90;;;;;;5066134;28;20055;-36
2022/05/08 00:37:05;;;;;;;16.33;5.93;;;6.90;99.90;;;;;;5035530;28;20044;-37
2022/05/08 00:39:32;;;;;;;17.13;5.37;;;6.90;99.90;;;;;;5068594;28;20060;-37
2022/05/08 00:42:01;;;;;;;19.43;5.47;;;6.90;99.90;;;;;;5066634;28;20123;-43
2022/05/08 00:44:27;;;;;;;23.93;5.40;;;6.90;99.90;;;;;;5037905;28;20424;-37
2022/05/08 00:46:53;;;;;;;22.70;5.50;;;7.00;99.90;;;;;;5050298;28;20051;-38
2022/05/08 00:49:18;;;;;;;22.57;5.70;;;6.90;99.90;;;;;;5054639;28;20033;-38
2022/05/08 00:51:47;;;;;;;17.37;4.83;;;6.80;99.90;;;;;;5068770;28;20044;-35
2022/05/08 00:54:14;;;;;;;21.03;5.20;;;6.70;99.90;;;;;;5067628;28;20094;-35
2022/05/08 00:56:41;;;;;;;20.00;5.30;;;6.80;99.90;;;;;;5044299;28;20048;-35
2022/05/08 00:59:07;;;;;;;22.27;5.03;;;6.70;99.90;;;;;;5047400;28;20204;-36
2022/05/08 01:01:32;;;;;;;14.87;5.37;;;6.70;99.90;;;;;;5071348;28;20517;-35
2022/05/08 01:03:58;;;;;;;21.13;5.57;;;6.70;99.90;;;;;;5060488;28;20052;-38
2022/05/08 01:06:24;;;;;;;23.07;5.50;;;6.70;99.90;;;;;;5043648;28;20064;-42
2022/05/08 01:08:50;;;;;;;19.87;5.13;;;6.70;99.90;;;;;;5063828;28;20048;-36
2022/05/08 01:11:17;;;;;;;19.47;5.30;;;6.60;99.90;;;;;;5068907;28;20124;-37
2022/05/08 01:13:45;;;;;;;29.00;5.90;;;6.70;99.90;;;;;;5067461;28;20052;-36
2022/05/08 01:16:18;;;;;;;21.00;5.37;;;6.60;99.90;;;;;;5025277;28;20063;-40
2022/05/08 01:18:45;;;;;;;24.10;5.10;;;6.60;99.90;;;;;;5036683;28;20060;-38
2022/05/08 01:21:14;;;;;;;21.00;4.97;;;6.60;99.90;;;;;;5068385;28;20049;-37
2022/05/08 01:23:41;;;;;;;27.83;5.77;;;6.60;99.90;;;;;;5049817;28;20135;-36
2022/05/08 01:26:07;;;;;;;16.27;4.40;;;6.50;99.90;;;;;;5064500;28;20098;-37
2022/05/08 01:28:33;;;;;;;16.20;4.90;;;6.50;99.90;;;;;;5051385;28;20457;-42
2022/05/08 01:30:59;;;;;;;22.90;4.87;;;6.50;99.90;;;;;;5067457;28;20131;-37
2022/05/08 01:33:26;;;;;;;20.27;5.43;;;6.40;99.90;;;;;;5036673;28;20094;-36
2022/05/08 01:35:52;;;;;;;22.37;4.47;;;6.40;99.90;;;;;;5043343;28;20044;-42
2022/05/08 01:38:23;;;;;;;16.93;5.20;;;6.30;99.90;;;;;;5042481;28;20060;-34
2022/05/08 01:40:50;;;;;;;20.77;5.40;;;6.30;99.90;;;;;;5061327;28;20125;-37
2022/05/08 01:43:16;;;;;;;18.30;4.77;;;6.20;99.90;;;;;;5046939;28;20110;-37
2022/05/08 01:45:42;;;;;;;19.07;4.37;;;6.20;99.90;;;;;;5055749;28;20123;-40
2022/05/08 01:48:23;;;;;;;19.57;4.70;;;6.10;99.90;;;;;;5031852;28;20128;-35
2022/05/08 01:50:52;;;;;;;;;;;6.20;99.90;;;;;;5067608;28;20053;-39
2022/05/08 01:53:25;;;;;;;21.10;4.97;;;6.10;99.90;;;;;;5067566;28;19920;-37
2022/05/08 01:55:54;;;;;;;16.43;3.97;;;6.10;99.90;;;;;;5066177;28;20060;-35
2022/05/08 01:58:27;;;;;;;17.90;4.53;;;6.10;99.90;;;;;;5048165;28;20492;-36
2022/05/08 02:00:54;;;;;;;15.03;4.43;;;6.00;99.90;;;;;;5050508;28;20137;-36
2022/05/08 02:03:21;;;;;;;18.60;4.10;;;6.00;99.90;;;;;;5065453;28;20056;-41
2022/05/08 02:05:47;;;;;;;15.47;4.50;;;6.10;99.90;;;;;;5039411;28;20045;-39
2022/05/08 02:08:13;;;;;;;16.33;4.70;;;6.10;99.90;;;;;;5048823;28;20049;-37
2022/05/08 02:10:39;;;;;;;17.97;5.27;;;6.10;99.90;;;;;;5049430;28;20041;-37
2022/05/08 02:13:07;;;;;;;23.17;4.90;;;6.00;99.90;;;;;;5067513;28;20132;-36
2022/05/08 02:15:33;;;;;;;18.93;4.90;;;6.00;99.90;;;;;;5037038;28;20049;-36
2022/05/08 02:18:01;;;;;;;15.83;4.03;;;6.00;99.90;;;;;;5052223;28;20040;-35
2022/05/08 02:20:27;;;;;;;17.90;4.47;;;6.00;99.90;;;;;;5053636;28;20056;-35
2022/05/08 02:22:53;;;;;;;13.57;3.90;;;5.90;99.90;;;;;;5066679;28;20049;-37
2022/05/08 02:25:19;;;;;;;14.80;4.13;;;5.80;99.90;;;;;;5060214;28;20124;-37
2022/05/08 02:27:49;;;;;;;20.00;4.83;;;5.80;99.90;;;;;;5055294;28;20051;-37
2022/05/08 02:30:16;;;;;;;17.90;4.50;;;5.80;99.90;;;;;;5064809;28;20044;-35
2022/05/08 02:32:43;;;;;;;17.23;4.53;;;5.80;99.90;;;;;;5055230;28;20428;-37
2022/05/08 02:35:10;;;;;;;19.37;4.90;;;5.70;99.90;;;;;;5063663;28;20056;-40
2022/05/08 02:37:36;;;;;;;17.63;4.40;;;5.70;99.90;;;;;;5055491;28;20523;-35
2022/05/08 02:40:04;;;;;;;19.53;4.70;;;5.70;99.90;;;;;;5071002;28;20056;-36
2022/05/08 02:42:30;;;;;;;18.83;4.37;;;5.60;99.90;;;;;;5070037;28;20041;-34
2022/05/08 02:44:55;;;;;;;13.27;4.13;;;5.60;99.90;;;;;;5066094;28;20456;-36
2022/05/08 02:47:21;;;;;;;13.70;3.97;;;5.60;99.90;;;;;;5041780;28;20074;-35
2022/05/08 02:49:47;;;;;;;19.90;4.30;;;5.50;99.90;;;;;;5070983;28;20043;-42
2022/05/08 02:52:13;;;;;;;11.33;3.93;;;5.50;99.90;;;;;;5052373;28;20052;-35
2022/05/08 02:54:38;;;;;;;16.10;4.07;;;5.50;99.90;;;;;;5062511;28;20120;-36
2022/05/08 02:59:48;;;;;;;20.10;3.90;;;5.50;99.90;;;;;;5073169;28;20363;-36
2022/05/08 03:02:14;;;;;;;17.57;4.37;;;5.50;99.90;;;;;;5070036;28;20056;-36
2022/05/08 03:04:40;;;;;;;14.93;4.60;;;5.50;99.90;;;;;;5062620;28;20166;-40
2022/05/08 03:07:06;;;;;;;18.20;4.00;;;5.50;99.90;;;;;;5037690;28;20098;-36
2022/05/08 03:09:31;;;;;;;20.00;4.70;;;5.50;99.90;;;;;;5050590;28;20460;-40
2022/05/08 03:11:57;;;;;;;18.13;4.40;;;5.50;99.90;;;;;;5057218;28;20101;-39
2022/05/08 03:14:24;;;;;;;14.63;4.20;;;5.50;99.90;;;;;;5068949;28;20127;-36
2022/05/08 03:16:50;;;;;;;12.13;3.50;;;5.50;99.90;;;;;;5045612;28;20186;-38
2022/05/08 03:19:18;;;;;;;17.03;4.17;;;5.40;99.90;;;;;;5069007;28;20512;-36
2022/05/08 03:21:48;;;;;;;18.33;4.40;;;5.40;99.90;;;;;;5070438;28;20129;-36
2022/05/08 03:24:14;;;;;;;13.57;3.80;;;5.40;99.90;;;;;;5069049;28;20191;-41
2022/05/08 03:26:40;;;;;;;16.67;3.77;;;5.40;99.90;;;;;;5050179;28;20055;-41
2022/05/08 03:29:07;;;;;;;13.37;4.10;;;5.40;99.90;;;;;;5060720;28;20044;-36
2022/05/08 03:31:33;;;;;;;15.10;3.83;;;5.40;99.90;;;;;;5061246;28;20059;-36
2022/05/08 03:33:59;;;;;;;13.43;4.00;;;5.30;99.90;;;;;;5051000;28;20084;-37
2022/05/08 03:36:25;;;;;;;15.60;4.00;;;5.40;99.90;;;;;;5057189;28;20045;-40
2022/05/08 03:38:50;;;;;;;19.43;3.93;;;5.40;99.90;;;;;;5061294;28;20047;-35
2022/05/08 03:41:16;;;;;;;15.53;4.03;;;5.30;99.90;;;;;;5049735;28;20137;-36
2022/05/08 03:43:46;;;;;;;15.93;4.20;;;5.30;99.90;;;;;;5052742;28;20048;-36
2022/05/08 03:46:13;;;;;;;14.27;4.00;;;5.20;99.90;;;;;;5051697;28;20183;-41
2022/05/08 03:48:39;;;;;;;15.77;3.70;;;5.30;99.90;;;;;;5055837;28;20040;-39
2022/05/08 03:51:05;;;;;;;17.77;4.77;;;5.30;99.90;;;;;;5026912;28;20047;-35
2022/05/08 03:53:30;;;;;;;17.63;4.47;;;5.20;99.90;;;;;;5048809;28;20110;-41
2022/05/08 03:55:56;;;;;;;14.87;4.47;;;5.20;99.90;;;;;;5051205;28;20569;-36
2022/05/08 03:58:22;;;;;;;14.77;3.90;;;5.20;99.90;;;;;;5049846;28;20412;-39
2022/05/08 04:00:48;;;;;;;10.83;4.33;;;5.20;99.90;;;;;;5068943;28;20044;-38
2022/05/08 04:03:13;;;;;;;16.13;4.30;;;5.10;99.90;;;;;;5047045;28;20052;-40
2022/05/08 04:05:39;;;;;;;12.97;4.30;;;5.10;99.90;;;;;;5055227;28;20037;-40
2022/05/08 04:08:05;;;;;;;13.47;3.73;;;5.30;99.90;;;;;;5050758;28;20547;-43
2022/05/08 04:10:32;;;;;;;18.23;4.03;;;5.10;99.90;;;;;;5061069;28;20051;-41
2022/05/08 04:12:57;;;;;;;14.00;3.73;;;5.10;99.90;;;;;;5068544;28;20048;-38
2022/05/08 04:18:09;;;;;;;18.57;4.60;;;5.10;99.90;;;;;;5032757;28;20071;-41
2022/05/08 04:20:35;;;;;;;12.53;3.77;;;5.00;99.90;;;;;;5058075;28;20048;-40
2022/05/08 04:25:45;;;;;;;12.77;3.77;;;5.00;99.90;;;;;;5068859;28;20044;-37
2022/05/08 04:28:11;;;;;;;16.70;4.50;;;5.10;99.90;;;;;;5052005;28;20045;-38
2022/05/08 04:30:38;;;;;;;12.63;3.77;;;5.10;99.90;;;;;;5068158;28;20564;-40
2022/05/08 04:33:03;;;;;;;20.20;4.20;;;5.10;99.90;;;;;;5054619;28;20052;-40
2022/05/08 04:35:30;;;;;;;13.73;4.10;;;5.10;99.90;;;;;;5063860;28;20040;-41
2022/05/08 04:37:55;;;;;;;17.70;4.10;;;5.10;99.90;;;;;;5052855;28;20076;-37
2022/05/08 04:40:21;;;;;;;11.60;3.50;;;5.10;99.90;;;;;;5069099;28;20072;-42
2022/05/08 04:42:47;;;;;;;13.57;3.90;;;5.20;99.90;;;;;;5063917;28;20063;-37
2022/05/08 04:45:12;;;;;;;13.40;4.63;;;5.10;99.90;;;;;;5065945;28;20072;-39
2022/05/08 04:47:38;;;;;;;12.10;3.97;;;5.20;99.90;;;;;;5031910;28;20469;-41
2022/05/08 04:50:04;;;;;;;14.47;4.07;;;5.20;99.90;;;;;;5051028;28;20045;-36
2022/05/08 04:52:30;;;;;;;15.97;5.00;;;5.30;99.90;;;;;;5045080;28;20060;-38
2022/05/08 04:54:56;;;;;;;13.97;3.97;;;5.30;99.90;;;;;;5068971;28;20519;-35
2022/05/08 04:57:21;;;;;;;16.43;4.07;;;5.40;99.90;;;;;;5043182;28;20490;-40
2022/05/08 04:59:47;;;;;;;14.20;4.03;;;5.40;99.90;;;;;;5071026;28;20399;-41
2022/05/08 05:02:14;;;;;;;16.03;4.60;;;5.50;99.90;;;;;;5067463;28;20044;-40
2022/05/08 05:04:40;;;;;;;16.63;4.17;;;5.60;99.90;;;;;;5057087;28;20053;-37
2022/05/08 05:07:07;;;;;;;13.53;4.23;;;5.60;99.90;;;;;;5051660;28;20384;-42
2022/05/08 05:09:32;;;;;;;19.73;4.40;;;5.70;99.90;;;;;;5068250;28;20056;-37
2022/05/08 05:12:01;;;;;;;15.17;4.93;;;5.80;99.90;;;;;;5068047;28;20055;-41
2022/05/08 05:14:31;;;;;;;13.17;4.53;;;5.90;99.90;;;;;;5066814;28;20059;-36
2022/05/08 05:16:58;;;;;;;9.53;3.70;;;6.00;99.90;;;;;;5034821;28;20627;-43
2022/05/08 05:19:23;;;;;;;16.80;4.23;;;6.00;99.90;;;;;;5066922;28;20048;-39
2022/05/08 05:21:49;;;;;;;12.60;4.07;;;6.20;99.90;;;;;;5042708;28;20050;-38
2022/05/08 05:24:15;;;;;;;17.70;3.87;;;6.20;99.90;;;;;;5062742;28;20080;-36
2022/05/08 05:26:40;;;;;;;16.27;4.40;;;6.30;99.90;;;;;;5053150;28;20569;-37
2022/05/08 05:29:07;;;;;;;13.50;4.03;;;6.40;99.90;;;;;;5044624;28;20048;-43
2022/05/08 05:31:32;;;;;;;13.97;4.00;;;6.60;99.90;;;;;;5057235;28;20385;-40
2022/05/08 05:33:58;;;;;;;13.00;3.90;;;6.80;99.90;;;;;;5053533;28;20170;-38
2022/05/08 05:36:24;;;;;;;12.17;3.97;;;6.90;99.90;;;;;;5044822;28;20438;-44
2022/05/08 05:38:50;;;;;;;12.37;4.13;;;7.00;99.90;;;;;;5043209;28;20089;-39
2022/05/08 05:41:16;;;;;;;14.43;3.87;;;7.10;99.90;;;;;;5057760;28;20094;-36
2022/05/08 05:43:41;;;;;;;14.63;3.87;;;7.20;99.90;;;;;;5063652;28;20554;-36
2022/05/08 05:48:51;;;;;;;14.50;3.77;;;7.40;99.90;;;;;;5054750;28;20044;-41
2022/05/08 05:51:17;;;;;;;12.33;3.10;;;7.50;99.90;;;;;;5072033;28;20052;-43
2022/05/08 05:53:42;;;;;;;16.57;3.33;;;7.60;99.90;;;;;;5070384;28;20144;-39
2022/05/08 05:56:09;;;;;;;16.90;3.20;;;7.60;99.90;;;;;;5062623;28;20052;-38
2022/05/08 05:58:35;;;;;;;13.20;3.00;;;7.70;99.90;;;;;;5056057;28;20110;-36
2022/05/08 06:01:01;;;;;;;12.27;3.13;;;7.80;99.90;;;;;;5056259;28;20040;-37
2022/05/08 06:03:27;;;;;;;12.43;3.20;;;7.90;99.90;;;;;;5069597;28;20565;-37
2022/05/08 06:05:53;;;;;;;9.73;2.87;;;8.00;99.90;;;;;;5071153;28;20071;-42
2022/05/08 06:08:18;;;;;;;10.77;3.13;;;8.30;99.90;;;;;;5054593;28;20048;-41
2022/05/08 06:10:44;;;;;;;14.00;2.90;;;8.40;99.90;;;;;;5062621;28;20120;-38
2022/05/08 06:13:10;;;;;;;18.10;2.47;;;8.50;99.90;;;;;;5057410;28;20283;-38
2022/05/08 06:15:35;;;;;;;11.43;2.40;;;8.50;99.90;;;;;;5049992;28;20037;-39
2022/05/08 06:18:01;;;;;;;11.87;2.63;;;8.70;99.90;;;;;;5034619;28;20045;-42
2022/05/08 06:20:27;;;;;;;10.03;2.73;;;8.90;99.90;;;;;;5051387;28;20076;-39
2022/05/08 06:22:54;;;;;;;11.33;2.57;;;9.00;99.90;;;;;;5050181;28;20040;-40
2022/05/08 06:25:20;;;;;;;11.10;2.33;;;9.10;99.90;;;;;;5053103;28;20556;-42
2022/05/08 06:27:45;;;;;;;10.70;2.20;;;9.30;99.90;;;;;;5037054;28;20128;-37
2022/05/08 06:30:12;;;;;;;10.50;2.30;;;9.40;99.90;;;;;;5067707;28;20111;-43
2022/05/08 06:32:37;;;;;;;6.80;1.93;;;9.60;99.90;;;;;;5069071;28;20048;-38
2022/05/08 06:35:03;;;;;;;9.60;2.33;;;9.70;99.90;;;;;;5065030;28;20499;-37
2022/05/08 06:37:29;;;;;;;11.90;2.53;;;9.80;99.90;;;;;;5054441;28;20511;-37
2022/05/08 06:39:55;;;;;;;6.93;2.00;;;10.10;99.90;;;;;;5058693;28;20051;-44
2022/05/08 06:42:20;;;;;;;12.53;2.33;;;10.10;99.90;;;;;;5064975;28;20067;-38
2022/05/08 06:44:46;;;;;;;16.17;2.20;;;10.20;99.90;;;;;;5068127;28;20090;-39
2022/05/08 06:47:12;;;;;;;13.37;2.00;;;10.40;99.90;;;;;;5046557;28;20048;-40
2022/05/08 06:49:37;;;;;;;9.53;1.90;;;10.40;99.90;;;;;;5070225;28;20102;-41
2022/05/08 06:52:03;;;;;;;12.00;2.37;;;10.50;99.90;;;;;;5067375;28;20090;-39
2022/05/08 06:54:29;;;;;;;10.10;2.00;;;10.60;99.90;;;;;;5059650;28;20717;-41
2022/05/08 06:56:56;;;;;;;11.70;2.28;;;10.80;99.90;;;;;;5042316;28;20060;-39
2022/05/08 07:02:08;;;;;;;12.90;2.17;;;10.90;99.90;;;;;;5067655;28;20056;-38
2022/05/08 07:04:34;;;;;;;8.05;2.00;;;11.00;99.90;;;;;;5051286;28;20048;-37
2022/05/08 07:07:00;;;;;;;11.65;2.00;;;11.10;99.90;;;;;;5051429;28;20131;-38
2022/05/08 07:09:25;;;;;;;12.33;2.60;;;11.10;99.90;;;;;;5069198;28;20102;-36
2022/05/08 07:11:52;;;;;;;12.90;2.05;;;11.20;99.90;;;;;;5058135;28;20028;-39
2022/05/08 07:14:18;;;;;;;7.78;1.80;;;11.20;99.90;;;;;;5061732;28;20036;-41
2022/05/08 07:16:44;;;;;;;9.85;2.40;;;11.20;99.90;;;;;;5034151;28;20037;-38
2022/05/08 07:19:10;;;;;;;7.13;1.80;;;11.30;99.90;;;;;;5044376;28;20052;-39
2022/05/08 07:21:36;;;;;;;9.52;2.00;;;11.40;99.90;;;;;;5070389;28;20037;-41
2022/05/08 07:24:02;;;;;;;12.32;2.17;;;11.40;99.90;;;;;;5064886;28;20053;-38
2022/05/08 07:26:28;;;;;;;10.48;2.30;;;11.40;99.90;;;;;;5058006;28;20153;-38
2022/05/08 07:28:54;;;;;;;10.30;2.50;;;11.50;99.90;;;;;;5065595;28;20040;-42
2022/05/08 07:31:19;;;;;;;10.52;2.20;;;11.60;99.90;;;;;;5069122;28;20044;-45
2022/05/08 07:33:45;;;;;;;13.98;2.03;;;11.60;99.90;;;;;;5054297;28;20087;-38
2022/05/08 07:36:14;;;;;;;8.90;1.90;;;11.70;99.90;;;;;;5053547;28;20492;-40
2022/05/08 07:38:44;;;;;;;14.30;2.33;;;11.70;99.90;;;;;;5054005;28;20047;-44
2022/05/08 07:41:11;;;;;;;18.13;2.55;;;11.70;99.90;;;;;;5069736;28;20040;-39
2022/05/08 07:43:38;;;;;;;8.63;2.00;;;11.80;99.90;;;;;;5055748;28;20045;-39
2022/05/08 07:46:05;;;;;;;14.43;2.30;;;11.80;99.90;;;;;;5063928;28;20091;-40
2022/05/08 07:48:31;;;;;;;9.02;1.83;;;11.80;99.90;;;;;;5049894;28;20048;-41
2022/05/08 07:50:59;;;;;;;12.35;2.10;;;11.80;99.90;;;;;;5051260;28;20508;-43
2022/05/08 07:53:26;;;;;;;10.85;2.22;;;11.90;99.90;;;;;;5069037;28;20043;-41
2022/05/08 07:55:52;;;;;;;11.23;2.53;;;11.80;99.90;;;;;;5068098;28;20053;-43
2022/05/08 07:58:21;;;;;;;11.63;2.17;;;11.80;99.90;;;;;;5034833;28;20407;-38
2022/05/08 08:00:53;;;;;;;9.98;1.95;;;11.80;99.90;;;;;;5071710;28;20151;-39
2022/05/08 08:03:20;;;;;;;;;;;11.80;99.90;;;;;;5054236;28;20527;-40
2022/05/08 08:05:46;;;;;;;9.63;2.25;;;11.80;99.90;;;;;;5055291;28;19920;-43
2022/05/08 08:08:12;;;;;;;9.48;2.15;;;11.80;99.90;;;;;;5052538;28;20053;-41
2022/05/08 08:10:38;;;;;;;13.43;1.90;;;11.80;99.90;;;;;;5068798;28;20048;-44
2022/05/08 08:13:04;;;;;;;8.45;1.80;;;11.90;99.90;;;;;;5066515;28;20106;-43
2022/05/08 08:15:30;;;;;;;8.18;2.00;;;11.80;99.90;;;;;;5065584;28;20037;-42
2022/05/08 08:17:55;;;;;;;10.98;2.25;;;11.80;99.90;;;;;;5038928;28;20072;-38
2022/05/08 08:20:21;;;;;;;9.52;2.22;;;11.80;99.90;;;;;;5042322;28;20499;-41
2022/05/08 08:22:47;;;;;;;11.63;2.85;;;11.80;99.90;;;;;;5068195;28;20049;-38
2022/05/08 08:25:12;;;;;;;13.27;2.50;;;11.80;99.90;;;;;;5057180;28;20041;-43
2022/05/08 08:27:38;;;;;;;10.00;2.15;;;11.80;99.90;;;;;;5033892;28;20484;-40
2022/05/08 08:30:08;;;;;;;8.90;2.25;;;11.80;99.90;;;;;;5063063;28;20040;-37
2022/05/08 08:32:33;;;;;;;13.05;2.35;;;11.80;99.90;;;;;;5047072;28;20084;-38
2022/05/08 08:34:59;;;;;;;13.25;2.33;;;11.80;99.90;;;;;;5051309;28;20068;-41
2022/05/08 08:37:26;;;;;;;12.25;1.83;;;11.80;99.90;;;;;;5034221;28;20081;-45
2022/05/08 08:39:51;;;;;;;6.55;1.80;;;11.80;99.90;;;;;;5054669;28;20548;-37
2022/05/08 08:42:28;;;;;;;7.82;2.03;;;11.80;99.90;;;;;;5063455;28;20044;-37
2022/05/08 08:48:03;;;;;;;13.73;2.40;;;11.80;99.90;;;;;;5036224;28;20051;-43
2022/05/08 08:50:28;;;;;;;9.85;1.90;;;11.80;99.90;;;;;;5034512;28;20048;-43
2022/05/08 08:52:58;;;;;;;10.40;1.95;;;11.80;99.90;;;;;;5045165;28;20070;-42
2022/05/08 08:55:24;;;;;;;11.60;2.45;;;11.90;99.90;;;;;;5047287;28;20042;-43
2022/05/08 08:57:50;;;;;;;13.82;2.40;;;11.90;99.90;;;;;;5029071;28;20049;-39
2022/05/08 09:00:18;;;;;;;8.45;2.08;;;11.90;99.90;;;;;;5049439;28;20060;-42
2022/05/08 09:02:44;;;;;;;9.73;2.67;;;11.90;99.90;;;;;;5050678;28;20622;-41
2022/05/08 09:05:10;;;;;;;12.27;2.50;;;12.00;99.90;;;;;;5051321;28;20045;-37
2022/05/08 09:07:47;;;;;;;8.27;1.90;;;11.90;99.90;;;;;;5048646;28;20040;-45
2022/05/08 09:10:17;;;;;;;11.35;2.03;;;12.10;99.90;;;;;;5042809;28;20128;-41
2022/05/08 09:12:51;;;;;;;12.55;2.30;;;12.10;99.90;;;;;;5022213;28;20106;-43
2022/05/08 09:15:17;;;;;;;14.52;2.28;;;12.20;99.90;;;;;;5024475;28;20424;-38
2022/05/08 09:17:44;;;;;;;10.93;2.40;;;12.20;99.90;;;;;;5025754;28;20106;-36
2022/05/08 09:20:24;;;;;;;12.18;2.00;;;12.30;99.90;;;;;;5021942;28;20521;-43
2022/05/08 09:23:15;;;;;;;13.75;2.28;;;12.30;99.90;;;;;;5038197;28;20056;-38
2022/05/08 09:25:59;;;;;;;14.48;2.63;;;12.40;99.90;;;;;;5043662;28;20987;-43
2022/05/08 09:28:28;;;;;;;9.82;2.22;;;12.40;99.90;;;;;;5028493;28;20450;-39
2022/05/08 09:31:11;;;;;;;10.10;2.25;;;12.40;99.90;;;;;;5052604;28;20048;-42
2022/05/08 09:33:45;;;;;;;13.00;2.63;;;12.40;99.90;;;;;;5041084;28;21630;-44
2022/05/08 09:36:22;;;;;;;11.00;2.25;;;12.40;99.90;;;;;;5033175;28;20539;-39
2022/05/08 09:39:00;;;;;;;12.57;2.38;;;12.40;99.90;;;;;;5037635;28;20092;-37
2022/05/08 09:41:31;;;;;;;9.82;2.35;;;12.40;99.90;;;;;;5039786;28;20504;-38
2022/05/08 09:44:12;;;;;;;8.02;1.83;;;12.40;99.90;;;;;;5030033;28;20249;-38
2022/05/08 09:46:38;;;;;;;11.63;2.58;;;12.40;99.90;;;;;;5008476;28;20061;-38
2022/05/08 09:49:07;;;;;;;8.40;1.83;;;12.40;99.90;;;;;;5038188;28;20032;-38
2022/05/08 09:51:33;;;;;;;14.98;2.78;;;12.40;99.90;;;;;;5058078;28;20060;-38
2022/05/08 09:54:00;;;;;;;13.32;2.75;;;12.50;99.90;;;;;;5040588;28;20361;-37
2022/05/08 09:56:25;;;;;;;12.43;2.78;;;12.50;99.90;;;;;;5031769;28;20585;-37
2022/05/08 09:58:51;;;;;;;10.18;2.20;;;12.50;99.90;;;;;;5041900;28;20109;-37
2022/05/08 10:01:17;;;;;;;11.43;2.25;;;12.50;99.90;;;;;;5042990;28;20063;-37
2022/05/08 10:03:46;;;;;;;12.85;2.55;;;12.50;99.90;;;;;;5058782;28;21038;-39
2022/05/08 10:06:13;;;;;;;14.25;2.45;;;12.60;99.90;;;;;;5038975;28;20057;-38
2022/05/08 10:08:41;;;;;;;12.52;2.60;;;12.50;99.90;;;;;;5035951;28;20084;-37
2022/05/08 10:14:05;;;;;;;10.73;2.28;;;12.50;99.90;;;;;;5030078;28;20134;-38
2022/05/08 10:16:49;;;;;;;8.93;2.13;;;12.50;99.90;;;;;;5028754;28;20174;-37
2022/05/08 10:19:18;;;;;;;7.32;2.25;;;12.60;99.90;;;;;;5040139;28;20444;-37
2022/05/08 10:21:56;;;;;;;6.18;1.83;;;12.60;99.90;;;;;;5041576;28;20099;-37
2022/05/08 10:24:41;;;;;;;12.13;2.67;;;12.60;99.90;;;;;;5041592;28;20052;-37
2022/05/08 10:27:15;;;;;;;10.52;2.67;;;12.60;99.90;;;;;;5007115;28;20213;-36
2022/05/08 10:29:51;;;;;;;9.98;2.65;;;12.60;99.90;;;;;;5040712;28;20684;-37
2022/05/08 10:32:31;;;;;;;8.85;2.47;;;12.60;99.90;;;;;;5040366;28;20461;-38
2022/05/08 10:35:03;;;;;;;11.82;2.33;;;12.60;99.90;;;;;;5043038;28;20417;-36
2022/05/08 10:37:30;;;;;;;11.27;2.40;;;12.60;99.90;;;;;;5030310;28;20178;-37
2022/05/08 10:39:56;;;;;;;8.40;2.30;;;12.70;99.90;;;;;;5034057;28;20044;-37
2022/05/08 10:42:28;;;;;;;13.90;2.63;;;12.70;99.90;;;;;;5030703;28;20060;-38
2022/05/08 10:44:55;;;;;;;12.25;2.53;;;12.70;99.90;;;;;;5051211;28;20047;-38
2022/05/08 10:47:33;;;;;;;12.60;2.70;;;12.70;99.90;;;;;;5010972;28;20534;-37
2022/05/08 10:49:59;;;;;;;13.23;2.25;;;12.80;99.90;;;;;;5027977;28;20052;-37
2022/05/08 10:52:25;;;;;;;11.25;2.15;;;12.90;99.90;;;;;;5049895;28;20511;-37
2022/05/08 10:55:03;;;;;;;12.75;2.63;;;12.80;99.90;;;;;;5055080;28;20064;-38
2022/05/08 10:57:32;;;;;;;12.40;1.88;;;12.90;99.90;;;;;;5033865;28;20458;-38
2022/05/08 11:00:03;;;;;;;10.85;2.30;;;12.90;99.90;;;;;;5044330;28;20044;-38
2022/05/08 11:02:42;;;;;;;11.05;2.75;;;12.90;99.90;;;;;;5044525;28;20127;-38
2022/05/08 11:05:27;;;;;;;10.45;2.00;;;13.00;99.90;;;;;;5057139;28;20169;-38
2022/05/08 11:07:58;;;;;;;12.38;2.28;;;12.90;99.90;;;;;;5040657;28;20155;-38
2022/05/08 11:10:24;;;;;;;10.85;2.08;;;13.00;99.90;;;;;;5050247;28;20053;-37
2022/05/08 11:13:05;;;;;;;12.23;2.25;;;13.00;99.90;;;;;;5043889;28;20051;-37
2022/05/08 11:15:36;;;;;;;12.18;2.42;;;13.10;99.90;;;;;;5025093;28;20067;-38
2022/05/08 11:18:07;;;;;;;12.05;2.38;;;13.10;99.90;;;;;;5028480;28;20621;-38
2022/05/08 11:20:38;;;;;;;12.10;1.98;;;13.20;99.90;;;;;;5060966;28;20327;-38
2022/05/08 11:23:10;;;;;;;13.05;2.20;;;13.20;99.90;;;;;;5045397;28;20707;-42
2022/05/08 11:25:35;;;;;;;8.70;2.00;;;13.30;99.90;;;;;;5035537;28;20052;-38
2022/05/08 11:28:01;;;;;;;9.20;2.17;;;13.40;99.90;;;;;;5037685;28;20121;-37
2022/05/08 11:30:27;;;;;;;12.00;2.20;;;13.40;99.90;;;;;;5033982;28;20060;-38
2022/05/08 11:38:22;;;;;;;12.98;2.60;;;13.50;99.90;;;;;;5028797;28;20097;-38
2022/05/08 11:40:50;;;;;;;10.55;2.55;;;13.60;99.90;;;;;;5025913;28;20060;-37
2022/05/08 11:43:44;;;;;;;8.38;2.10;;;13.70;99.90;;;;;;5043749;28;20586;-37
2022/05/08 11:46:15;;;;;;;8.40;2.30;;;13.70;99.90;;;;;;5043546;28;20057;-39
2022/05/08 11:48:50;;;;;;;9.02;2.45;;;13.80;99.90;;;;;;5032670;28;20058;-37
2022/05/08 11:51:21;;;;;;;9.70;2.50;;;13.80;99.90;;;;;;5053558;28;20048;-38
2022/05/08 11:53:51;;;;;;;13.13;2.47;;;13.90;99.90;;;;;;5043192;28;20562;-38
2022/05/08 11:56:23;;;;;;;14.07;2.17;;;13.90;99.90;;;;;;5037911;28;20039;-37
2022/05/08 11:58:49;;;;;;;10.30;2.17;;;14.00;99.90;;;;;;5040113;28;20056;-37
2022/05/08 12:01:47;;;;;;;9.30;2.33;;;14.10;99.90;;;;;;5049964;28;20052;-36
2022/05/08 12:04:33;;;;;;;13.45;2.63;;;14.20;99.90;;;;;;5022905;28;20483;-37
2022/05/08 12:07:10;;;;;;;10.48;2.25;;;14.20;99.90;;;;;;5037047;28;20102;-37
2022/05/08 12:09:38;;;;;;;10.05;2.47;;;14.30;99.90;;;;;;5061099;28;20132;-38
2022/05/08 12:12:23;;;;;;;12.48;2.58;;;14.30;99.90;;;;;;5065977;28;20032;-37
2022/05/08 12:14:50;;;;;;;11.40;2.30;;;14.40;99.90;;;;;;5062721;28;20044;-37
2022/05/08 12:17:16;;;;;;;9.77;2.28;;;14.40;99.90;;;;;;5033194;28;20080;-37
2022/05/08 12:20:11;;;;;;;10.20;2.08;;;14.50;99.90;;;;;;5049835;28;20447;-37
2022/05/08 12:22:37;;;;;;;8.95;2.10;;;14.50;99.90;;;;;;5056180;28;20045;-37
2022/05/08 12:25:04;;;;;;;8.60;2.33;;;14.50;99.90;;;;;;5067078;28;20036;-38
2022/05/08 12:27:30;;;;;;;8.13;1.98;;;14.60;99.90;;;;;;5049823;28;20045;-37
2022/05/08 12:29:56;;;;;;;11.02;2.40;;;14.70;99.90;;;;;;5066952;28;20076;-37
2022/05/08 12:32:24;;;;;;;10.10;2.28;;;14.80;99.90;;;;;;5065261;28;20474;-37
2022/05/08 12:34:53;;;;;;;11.93;2.40;;;14.90;99.90;;;;;;5049465;28;20048;-37
2022/05/08 12:37:19;;;;;;;11.75;2.50;;;15.00;99.90;;;;;;5048281;28;20040;-38
2022/05/08 12:39:46;;;;;;;10.10;2.30;;;15.00;99.90;;;;;;5067153;28;20056;-38
2022/05/08 12:42:12;;;;;;;9.68;1.88;;;15.10;99.90;;;;;;5065810;28;20035;-37
2022/05/08 12:44:38;;;;;;;9.25;2.17;;;15.10;99.90;;;;;;5068341;28;20480;-38
2022/05/08 12:47:09;;;;;;;11.27;1.92;;;15.10;99.90;;;;;;5052604;28;20428;-39
2022/05/08 12:49:37;;;;;;;7.97;2.08;;;15.10;99.90;;;;;;5050538;28;20098;-37
2022/05/08 12:52:04;;;;;;;7.68;2.08;;;15.20;99.90;;;;;;5068406;28;20532;-38
2022/05/08 12:54:30;;;;;;;11.65;2.20;;;15.30;99.90;;;;;;5068058;28;20105;-37
2022/05/08 12:56:56;;;;;;;10.82;2.20;;;15.30;99.90;;;;;;5047457;28;20381;-38
2022/05/08 13:02:06;;;;;;;9.13;1.92;;;15.40;99.90;;;;;;5047884;28;20085;-38
2022/05/08 13:04:32;;;;;;;6.15;2.00;;;15.40;99.90;;;;;;5059992;28;20044;-38
2022/05/08 13:06:57;;;;;;;10.60;2.30;;;15.40;99.90;;;;;;5034644;28;20048;-38
2022/05/08 13:09:23;;;;;;;12.65;2.42;;;15.50;99.90;;;;;;5055068;28;20041;-38
2022/05/08 13:11:49;;;;;;;7.75;1.83;;;15.50;99.90;;;;;;5067897;28;20040;-38
2022/05/08 13:14:15;;;;;;;6.97;1.95;;;15.50;99.90;;;;;;5067728;28;20515;-38